ADDS - METARS form results

Aviation Digital Data Service (ADDS)

Output produced by METARs form (0054 UTC 11 December 2018)
found at http://aviationweather.gov/metar/data/
 
METAR text: KVYS 110035Z AUTO 23008KT 10SM CLR 00/M02 A3020 RMK AO2 T00001025
Conditions at: KVYS (PERU , IL, US) observed 0035 UTC 11 December 2018
Temperature: 0.0°C (32°F)
Dewpoint: -2.5°C (28°F) [RH = 83%]
Pressure (altimeter): 30.20 inches Hg (1022.8 mb)
Winds: from the SW (230 degrees) at 9 MPH (8 knots; 4.1 m/s)
Visibility: 10 or more miles (16+ km)
Ceiling: at least 12,000 feet AGL
Clouds: sky clear below 12,000 feet AGL
Weather: automated observation with no human augmentation;
there may or may not be significant weather present at this time

METAR text: KVYS 110015Z AUTO 24007KT 10SM CLR 00/M03 A3020 RMK AO2 T00001027
Conditions at: KVYS (PERU , IL, US) observed 0015 UTC 11 December 2018
Temperature: 0.0°C (32°F)
Dewpoint: -2.7°C (27°F) [RH = 82%]
Pressure (altimeter): 30.20 inches Hg (1022.8 mb)
Winds: from the WSW (240 degrees) at 8 MPH (7 knots; 3.6 m/s)
Visibility: 10 or more miles (16+ km)
Ceiling: at least 12,000 feet AGL
Clouds: sky clear below 12,000 feet AGL
Weather: automated observation with no human augmentation;
there may or may not be significant weather present at this time

METAR text: KVYS 102355Z AUTO 22008KT 10SM CLR 00/M02 A3020 RMK AO2 T00001025 10034 20000
Conditions at: KVYS (PERU , IL, US) observed 2355 UTC 10 December 2018
Temperature: 0.0°C (32°F)
Dewpoint: -2.5°C (28°F) [RH = 83%]
Pressure (altimeter): 30.20 inches Hg (1022.8 mb)
Winds: from the SW (220 degrees) at 9 MPH (8 knots; 4.1 m/s)
Visibility: 10 or more miles (16+ km)
Ceiling: at least 12,000 feet AGL
Clouds: sky clear below 12,000 feet AGL
Weather: automated observation with no human augmentation;
there may or may not be significant weather present at this time